Time;durP1;ratioP1;P1;durP2;ratioP2;P2;SDS_P1;SDS_P2;PMS_P1;PMS_P2;Temp;Humidity;BMP_temperature;BMP_pressure;BME280_temperature;BME280_humidity;BME280_pressure;Samples;Min_cycle;Max_cycle;Signal;HPM_P1;HPM_P2
2022/08/05 00:01:30;;;;;;;;;;;12.70;99.90;;;;;;4918001;29;19966;-61
2022/08/05 00:04:16;;;;;;;;;;;12.70;99.90;;;;;;4908862;29;19934;-63
2022/08/05 00:06:44;;;;;;;;;;;12.70;99.90;;;;;;4898521;29;19934;-60
2022/08/05 00:09:13;;;;;;;;;;;12.60;99.90;;;;;;4915549;29;19934;-63
2022/08/05 00:11:46;;;;;;;;;;;12.70;99.90;;;;;;4913083;29;19927;-64
2022/08/05 00:14:16;;;;;;;;;;;12.60;99.90;;;;;;4915159;29;19935;-63
2022/08/05 00:16:44;;;;;;;;;;;12.70;99.90;;;;;;4916880;29;19931;-64
2022/08/05 00:19:20;;;;;;;;;;;12.70;99.90;;;;;;4913682;29;19928;-61
2022/08/05 00:21:49;;;;;;;;;;;12.70;99.90;;;;;;4910821;29;19934;-64
2022/08/05 00:24:17;;;;;;;;;;;12.80;99.90;;;;;;4914997;29;19949;-64
2022/08/05 00:26:51;;;;;;;;;;;12.80;99.90;;;;;;4902165;29;19936;-64
2022/08/05 00:29:20;;;;;;;;;;;12.90;99.90;;;;;;4901953;29;19927;-61
2022/08/05 00:31:54;;;;;;;;;;;12.90;99.90;;;;;;4912468;29;19934;-63
2022/08/05 00:34:41;;;;;;;;;;;13.40;99.90;;;;;;4913154;29;19934;-64
2022/08/05 00:37:29;;;;;;;;;;;12.90;99.90;;;;;;4896108;29;19934;-64
2022/08/05 00:40:17;;;;;;;;;;;13.00;99.90;;;;;;4911484;29;19935;-57
2022/08/05 00:42:56;;;;;;;;;;;13.00;99.90;;;;;;4898614;29;19928;-61
2022/08/05 00:45:24;;;;;;;;;;;13.00;99.90;;;;;;4896043;29;19935;-55
2022/08/05 00:48:09;;;;;;;;;;;13.00;99.90;;;;;;4903407;29;19938;-62
2022/08/05 00:50:38;;;;;;;;;;;13.10;99.90;;;;;;4907431;29;19934;-60
2022/08/05 00:53:11;;;;;;;;;;;13.10;99.90;;;;;;4918612;29;19927;-61
2022/08/05 00:55:58;;;;;;;;;;;13.10;99.90;;;;;;4919209;29;19939;-61
2022/08/05 00:58:26;;;;;;;;;;;13.10;99.90;;;;;;4902012;29;19935;-58
2022/08/05 01:00:54;;;;;;;;;;;13.00;99.90;;;;;;4914056;29;20387;-62
2022/08/05 01:03:23;;;;;;;;;;;13.10;99.90;;;;;;4905895;29;19927;-62
2022/08/05 01:05:57;;;;;;;;;;;13.10;99.90;;;;;;4898932;29;19927;-62
2022/08/05 01:08:25;;;;;;;;;;;13.00;99.90;;;;;;4924160;29;19934;-61
2022/08/05 01:11:12;;;;;;;;;;;13.00;99.90;;;;;;4904472;29;19928;-59
2022/08/05 01:13:56;;;;;;;;;;;12.90;99.90;;;;;;4905380;29;19931;-60
2022/08/05 01:16:32;;;;;;;;;;;12.90;99.90;;;;;;4909628;29;19931;-61
2022/08/05 01:19:05;;;;;;;;;;;12.90;99.90;;;;;;4914193;29;19928;-62
2022/08/05 01:21:44;;;;;;;;;;;12.80;99.90;;;;;;4913192;29;19928;-59
2022/08/05 01:24:36;;;;;;;;;;;12.80;99.90;;;;;;4912979;29;20278;-62
2022/08/05 01:27:19;;;;;;;;;;;12.80;99.90;;;;;;4911789;29;20279;-62
2022/08/05 01:30:01;;;;;;;;;;;12.80;99.90;;;;;;4913869;29;19939;-62
2022/08/05 01:32:32;;;;;;;;;;;12.80;99.90;;;;;;4902265;29;19927;-62
2022/08/05 01:35:01;;;;;;;;;;;12.70;99.90;;;;;;4917183;29;19927;-62
2022/08/05 01:37:33;;;;;;;;;;;12.80;99.90;;;;;;4926629;29;19928;-63
2022/08/05 01:40:04;;;;;;;;;;;12.70;99.90;;;;;;4911493;29;19943;-62
2022/08/05 01:42:31;;;;;;;;;;;12.70;99.90;;;;;;4900057;29;19927;-62
2022/08/05 01:45:00;;;;;;;;;;;12.70;99.90;;;;;;4916132;29;19928;-61
2022/08/05 01:47:30;;;;;;;;;;;12.70;99.90;;;;;;4911483;29;19931;-63
2022/08/05 01:50:10;;;;;;;;;;;12.70;99.90;;;;;;4914831;29;19934;-61
2022/08/05 01:52:43;;;;;;;;;;;12.70;99.90;;;;;;4911453;29;20016;-60
2022/08/05 01:55:18;;;;;;;;;;;12.70;99.90;;;;;;4898105;29;19935;-61
2022/08/05 01:57:46;;;;;;;;;;;12.70;99.90;;;;;;4905435;29;19928;-62
2022/08/05 02:00:35;;;;;;;;;;;12.60;99.90;;;;;;4916668;29;19934;-60
2022/08/05 02:03:06;;;;;;;;;;;12.60;99.90;;;;;;4909703;29;19927;-61
2022/08/05 02:05:56;;;;;;;;;;;12.60;99.90;;;;;;4915485;29;19927;-62
2022/08/05 02:08:27;;;;;;;;;;;12.60;99.90;;;;;;4916725;29;19934;-58
2022/08/05 02:11:05;;;;;;;;;;;12.60;99.90;;;;;;4928375;29;19934;-58
2022/08/05 02:13:44;;;;;;;;;;;12.50;99.90;;;;;;4930500;29;19934;-61
2022/08/05 02:16:42;;;;;;;;;;;12.50;99.90;;;;;;4930529;29;19927;-56
2022/08/05 02:19:13;;;;;;;;;;;12.50;99.90;;;;;;4898477;29;20013;-57
2022/08/05 02:21:44;;;;;;;;;;;12.50;99.90;;;;;;4897410;29;20406;-61
2022/08/05 02:24:17;;;;;;;;;;;12.40;99.90;;;;;;4897750;29;19935;-62
2022/08/05 02:26:46;;;;;;;;;;;12.40;99.90;;;;;;4901318;29;19931;-60
2022/08/05 02:29:23;;;;;;;;;;;12.40;99.90;;;;;;4916271;29;19927;-60
2022/08/05 02:32:12;;;;;;;;;;;12.40;99.90;;;;;;4916512;29;19927;-61
2022/08/05 02:34:52;;;;;;;;;;;12.30;99.90;;;;;;4916315;29;19927;-61
2022/08/05 02:37:22;;;;;;;;;;;12.30;99.90;;;;;;4903936;29;19927;-61
2022/08/05 02:39:52;;;;;;;;;;;12.30;99.90;;;;;;4911865;29;19928;-59
2022/08/05 02:42:20;;;;;;;;;;;12.20;99.90;;;;;;4897078;29;19927;-61
2022/08/05 02:44:55;;;;;;;;;;;12.20;99.90;;;;;;4897091;29;19927;-62
2022/08/05 02:47:23;;;;;;;;;;;12.20;99.90;;;;;;4897229;29;20001;-61
2022/08/05 02:50:12;;;;;;;;;;;12.20;99.90;;;;;;4910486;29;19927;-61
2022/08/05 02:52:44;;;;;;;;;;;12.10;99.90;;;;;;4930102;29;19927;-62
2022/08/05 02:55:12;;;;;;;;;;;12.10;99.90;;;;;;4912667;29;20395;-61
2022/08/05 02:57:44;;;;;;;;;;;12.10;99.90;;;;;;4910037;29;19927;-62
2022/08/05 03:00:33;;;;;;;;;;;12.00;99.90;;;;;;4908541;29;19962;-61
2022/08/05 03:03:02;;;;;;;;;;;11.90;99.90;;;;;;4896923;29;19931;-62
2022/08/05 03:05:38;;;;;;;;;;;11.80;99.90;;;;;;4906617;29;19927;-61
2022/08/05 03:08:25;;;;;;;;;;;11.70;99.90;;;;;;4895555;29;20014;-60
2022/08/05 03:10:56;;;;;;;;;;;11.60;99.90;;;;;;4896715;29;19935;-62
2022/08/05 03:13:43;;;;;;;;;;;11.60;99.90;;;;;;4900172;29;19928;-61
2022/08/05 03:16:28;;;;;;;;;;;11.50;99.90;;;;;;4916093;29;19938;-63
2022/08/05 03:18:58;;;;;;;;;;;11.40;99.90;;;;;;4914514;29;19927;-59
2022/08/05 03:21:26;;;;;;;;;;;11.40;99.90;;;;;;4915700;29;19927;-60
2022/08/05 03:23:56;;;;;;;;;;;11.40;99.90;;;;;;4915650;29;19934;-63
2022/08/05 03:26:24;;;;;;;;;;;11.30;99.90;;;;;;4915478;29;19927;-60
2022/08/05 03:28:59;;;;;;;;;;;11.30;99.90;;;;;;4914717;29;19931;-60
2022/08/05 03:31:27;;;;;;;;;;;11.30;99.90;;;;;;4914685;29;19928;-60
2022/08/05 03:34:15;;;;;;;;;;;11.30;99.90;;;;;;4914389;29;19927;-57
2022/08/05 03:36:42;;;;;;;;;;;11.30;99.90;;;;;;4913735;29;19928;-57
2022/08/05 03:39:10;;;;;;;;;;;11.30;99.90;;;;;;4912889;29;19927;-59
2022/08/05 03:41:46;;;;;;;;;;;11.40;99.90;;;;;;4913480;29;20434;-62
2022/08/05 03:44:18;;;;;;;;;;;11.40;99.90;;;;;;4915550;29;19932;-59
2022/08/05 03:46:46;;;;;;;;;;;11.40;99.90;;;;;;4915685;29;19927;-62
2022/08/05 03:49:14;;;;;;;;;;;11.50;99.90;;;;;;4915337;29;19943;-60
2022/08/05 03:51:51;;;;;;;;;;;11.50;99.90;;;;;;4915211;29;19927;-63
2022/08/05 03:54:42;;;;;;;;;;;11.40;99.90;;;;;;4910289;29;20429;-62
2022/08/05 03:57:32;;;;;;;;;;;11.40;99.90;;;;;;4895406;29;19930;-60
2022/08/05 04:00:11;;;;;;;;;;;11.40;99.90;;;;;;4896391;29;20315;-62
2022/08/05 04:02:43;;;;;;;;;;;11.00;99.90;;;;;;4915167;29;19934;-62
2022/08/05 04:05:27;;;;;;;;;;;11.30;99.90;;;;;;4914209;29;19953;-62
2022/08/05 04:08:01;;;;;;;;;;;11.30;99.90;;;;;;4914115;29;20314;-60
2022/08/05 04:10:29;;;;;;;;;;;11.30;99.90;;;;;;4900644;29;19967;-61
2022/08/05 04:13:06;;;;;;;;;;;11.30;99.90;;;;;;4898580;29;19927;-62
2022/08/05 04:15:33;;;;;;;;;;;11.30;99.90;;;;;;4914146;29;19927;-58
2022/08/05 04:18:03;;;;;;;;;;;11.30;99.90;;;;;;4914972;29;19942;-62
2022/08/05 04:20:36;;;;;;;;;;;11.30;99.90;;;;;;4914118;29;19928;-63
2022/08/05 04:23:03;;;;;;;;;;;11.30;99.90;;;;;;4912053;29;19927;-61
2022/08/05 04:25:31;;;;;;;;;;;11.30;99.90;;;;;;4915651;29;19935;-59
2022/08/05 04:28:19;;;;;;;;;;;11.30;99.90;;;;;;4917462;29;19950;-56
2022/08/05 04:30:57;;;;;;;;;;;11.40;99.90;;;;;;4899084;29;19935;-60
2022/08/05 04:33:27;;;;;;;;;;;11.40;99.90;;;;;;4899566;29;20306;-61
2022/08/05 04:36:15;;;;;;;;;;;11.50;99.90;;;;;;4916472;29;20421;-60
2022/08/05 04:39:02;;;;;;;;;;;11.40;99.90;;;;;;4918421;29;20302;-60
2022/08/05 04:41:30;;;;;;;;;;;11.40;99.90;;;;;;4917198;29;19934;-58
2022/08/05 04:44:05;;;;;;;;;;;11.30;99.90;;;;;;4931946;29;19927;-61
2022/08/05 04:46:37;;;;;;;;;;;11.20;99.90;;;;;;4913585;29;20293;-60
2022/08/05 04:49:05;;;;;;;;;;;11.20;99.90;;;;;;4910642;29;19934;-58
2022/08/05 04:51:44;;;;;;;;;;;11.10;99.90;;;;;;4912799;29;20430;-61
2022/08/05 04:54:13;;;;;;;;;;;11.00;99.90;;;;;;4897178;29;19934;-57
2022/08/05 04:56:41;;;;;;;;;;;11.00;99.90;;;;;;4910066;29;19953;-59
2022/08/05 04:59:10;;;;;;;;;;;11.00;99.90;;;;;;4912102;29;20557;-62
2022/08/05 05:01:51;;;;;;;;;;;11.00;99.90;;;;;;4911510;29;19935;-62
2022/08/05 05:04:34;;;;;;;;;;;11.00;99.90;;;;;;4911145;29;19931;-57
2022/08/05 05:07:04;;;;;;;;;;;11.00;99.90;;;;;;4910841;29;19931;-62
2022/08/05 05:09:35;;;;;;;;;;;11.00;99.90;;;;;;4928034;29;19928;-60
2022/08/05 05:12:04;;;;;;;;;;;11.00;99.90;;;;;;4900727;29;19934;-62
2022/08/05 05:14:32;;;;;;;;;;;11.00;99.90;;;;;;4923706;29;19941;-62
2022/08/05 05:17:02;;;;;;;;;;;11.00;99.90;;;;;;4893023;29;19950;-61
2022/08/05 05:19:35;;;;;;;;;;;10.90;99.90;;;;;;4911356;29;19935;-62
2022/08/05 05:22:13;;;;;;;;;;;10.90;99.90;;;;;;4912226;29;19926;-62
2022/08/05 05:24:53;;;;;;;;;;;10.90;99.90;;;;;;4913031;29;19927;-63
2022/08/05 05:27:24;;;;;;;;;;;10.90;99.90;;;;;;4914539;29;19934;-61
2022/08/05 05:30:13;;;;;;;;;;;10.80;99.90;;;;;;4910724;29;19927;-63
2022/08/05 05:32:56;;;;;;;;;;;10.80;99.90;;;;;;4907224;29;19927;-61
2022/08/05 05:35:28;;;;;;;;;;;10.80;99.90;;;;;;4899902;29;19927;-61
2022/08/05 05:38:05;;;;;;;;;;;10.50;99.90;;;;;;4903748;29;19927;-62
2022/08/05 05:40:38;;;;;;;;;;;10.80;99.90;;;;;;4909035;29;20678;-60
2022/08/05 05:43:14;;;;;;;;;;;10.80;99.90;;;;;;4902726;29;19927;-61
2022/08/05 05:45:48;;;;;;;;;;;10.80;99.90;;;;;;4893961;29;19931;-61
2022/08/05 05:48:16;;;;;;;;;;;10.80;99.90;;;;;;4908417;29;19927;-60
2022/08/05 05:50:49;;;;;;;;;;;10.80;99.90;;;;;;4906251;29;20303;-61
2022/08/05 05:53:17;;;;;;;;;;;10.70;99.90;;;;;;4907578;29;20382;-60
2022/08/05 05:55:48;;;;;;;;;;;10.80;99.90;;;;;;4899424;29;19939;-61
2022/08/05 05:58:27;;;;;;;;;;;10.80;99.90;;;;;;4903425;29;19934;-61
2022/08/05 06:00:59;;;;;;;;;;;10.80;99.90;;;;;;4909906;29;20245;-61
2022/08/05 06:03:40;;;;;;;;;;;10.80;99.90;;;;;;4902189;29;20401;-60
2022/08/05 06:06:28;;;;;;;;;;;10.80;99.90;;;;;;4912114;29;20322;-58
2022/08/05 06:08:59;;;;;;;;;;;10.90;99.90;;;;;;4913204;29;19931;-61
2022/08/05 06:11:26;;;;;;;;;;;11.00;99.90;;;;;;4908301;29;19928;-57
2022/08/05 06:13:55;;;;;;;;;;;11.10;99.90;;;;;;4913337;29;19928;-62
2022/08/05 06:16:23;;;;;;;;;;;11.20;99.90;;;;;;4909516;29;19941;-58
2022/08/05 06:18:59;;;;;;;;;;;11.40;99.90;;;;;;4911200;29;20310;-59
2022/08/05 06:21:31;;;;;;;;;;;11.50;99.90;;;;;;4917215;29;19942;-56
2022/08/05 06:24:04;;;;;;;;;;;11.60;99.90;;;;;;4903010;29;19935;-63
2022/08/05 06:26:34;;;;;;;;;;;11.70;99.90;;;;;;4926355;29;19927;-60
2022/08/05 06:29:02;;;;;;;;;;;11.80;99.90;;;;;;4912289;29;19927;-58
2022/08/05 06:31:49;;;;;;;;;;;11.80;99.90;;;;;;4911819;29;19938;-61
2022/08/05 06:34:17;;;;;;;;;;;11.80;99.90;;;;;;4917915;29;19931;-61
2022/08/05 06:36:46;;;;;;;;;;;11.80;99.90;;;;;;4908625;29;19934;-60
2022/08/05 06:39:24;;;;;;;;;;;11.80;99.90;;;;;;4912870;29;19931;-61
2022/08/05 06:41:55;;;;;;;;;;;11.90;99.90;;;;;;4911811;29;19934;-59
2022/08/05 06:44:25;;;;;;;;;;;11.90;99.90;;;;;;4908925;29;19938;-58
2022/08/05 06:46:52;;;;;;;;;;;11.90;99.90;;;;;;4911327;29;19931;-62
2022/08/05 06:49:20;;;;;;;;;;;11.90;99.90;;;;;;4907110;29;20414;-60
2022/08/05 06:52:08;;;;;;;;;;;11.90;99.90;;;;;;4911737;29;19927;-62
2022/08/05 06:54:55;;;;;;;;;;;12.00;99.90;;;;;;4911636;29;19927;-60
2022/08/05 06:57:23;;;;;;;;;;;12.10;99.90;;;;;;4906004;29;19950;-60
2022/08/05 07:00:11;;;;;;;;;;;12.20;99.90;;;;;;4899906;29;19927;-59
2022/08/05 07:02:42;;;;;;;;;;;12.20;99.90;;;;;;4905807;29;19931;-60
2022/08/05 07:05:13;;;;;;;;;;;12.30;99.90;;;;;;4897526;29;20414;-60
2022/08/05 07:07:47;;;;;;;;;;;12.30;99.90;;;;;;4897402;29;20267;-60
2022/08/05 07:10:15;;;;;;;;;;;12.40;99.90;;;;;;4912327;29;19943;-60
2022/08/05 07:18:31;;;;;;;;;;;12.70;99.90;;;;;;4894178;29;20309;-61
2022/08/05 07:20:59;;;;;;;;;;;12.90;99.90;;;;;;4908373;29;20425;-62
2022/08/05 07:23:33;;;;;;;;;;;12.90;99.90;;;;;;4909991;29;19935;-62
2022/08/05 07:26:06;;;;;;;;;;;12.90;99.90;;;;;;4912081;29;19927;-63
2022/08/05 07:28:39;;;;;;;;;;;12.80;99.90;;;;;;4913176;29;20371;-62
2022/08/05 07:31:07;;;;;;;;;;;12.90;99.90;;;;;;4899465;29;19927;-62
2022/08/05 07:33:37;;;;;;;;;;;12.80;99.90;;;;;;4903903;29;19928;-61
2022/08/05 07:36:08;;;;;;;;;;;12.90;99.90;;;;;;4893877;29;19951;-62
2022/08/05 07:38:47;;;;;;;;;;;12.90;99.90;;;;;;4907307;29;19934;-59
2022/08/05 07:41:22;;;;;;;;;;;13.00;99.90;;;;;;4909629;29;19942;-62
2022/08/05 07:44:09;;;;;;;;;;;13.10;99.90;;;;;;4910357;29;19946;-62
2022/08/05 07:46:47;;;;;;;;;;;13.20;99.90;;;;;;4911461;29;19950;-63
2022/08/05 07:49:16;;;;;;;;;;;13.30;99.90;;;;;;4903654;29;19938;-61
2022/08/05 07:51:45;;;;;;;;;;;13.30;99.90;;;;;;4894854;29;19934;-63
2022/08/05 07:54:27;;;;;;;;;;;13.40;99.90;;;;;;4920304;29;19934;-62
2022/08/05 07:57:02;;;;;;;;;;;13.50;99.90;;;;;;4892548;29;20373;-62
2022/08/05 07:59:50;;;;;;;;;;;13.60;99.90;;;;;;4900728;29;19927;-61
2022/08/05 08:02:22;;;;;;;;;;;13.70;99.90;;;;;;4909623;29;19934;-62
2022/08/05 08:04:57;;;;;;;;;;;13.80;99.90;;;;;;4910776;29;19931;-63
2022/08/05 08:07:25;;;;;;;;;;;13.90;99.90;;;;;;4914126;29;19927;-63
2022/08/05 08:09:55;;;;;;;;;;;14.00;99.90;;;;;;4907459;29;19927;-63
2022/08/05 08:12:22;;;;;;;;;;;14.00;99.90;;;;;;4902329;29;19939;-57
2022/08/05 08:15:04;;;;;;;;;;;14.10;99.90;;;;;;4896490;29;21306;-62
2022/08/05 08:17:44;;;;;;;;;;;14.20;99.90;;;;;;4905783;29;19938;-63
2022/08/05 08:20:17;;;;;;;;;;;14.30;99.90;;;;;;4912867;29;19927;-60
2022/08/05 08:23:06;;;;;;;;;;;14.40;99.90;;;;;;4898741;29;19935;-58
2022/08/05 08:25:53;;;;;;;;;;;14.30;99.90;;;;;;4899915;29;19931;-59
2022/08/05 08:28:27;;;;;;;;;;;14.20;99.90;;;;;;4902667;29;19939;-62
2022/08/05 08:31:05;;;;;;;;;;;14.20;99.90;;;;;;4912026;29;19938;-57
2022/08/05 08:33:33;;;;;;;;;;;14.20;99.90;;;;;;4910752;29;20287;-62
2022/08/05 08:36:07;;;;;;;;;;;14.20;99.90;;;;;;4905956;29;19959;-62
2022/08/05 08:38:55;;;;;;;;;;;14.30;99.90;;;;;;4910130;29;19950;-63
2022/08/05 08:41:25;;;;;;;;;;;14.30;99.90;;;;;;4903516;29;20302;-62
2022/08/05 08:44:16;;;;;;;;;;;14.40;99.90;;;;;;4905564;29;19934;-58
2022/08/05 08:47:05;;;;;;;;;;;14.50;99.90;;;;;;4903419;29;19927;-62
2022/08/05 08:49:54;;;;;;;;;;;14.70;99.90;;;;;;4906252;29;20383;-62
2022/08/05 08:52:44;;;;;;;;;;;14.90;99.90;;;;;;4905263;29;19932;-60
2022/08/05 08:55:18;;;;;;;;;;;15.00;99.90;;;;;;4912005;29;20283;-57
2022/08/05 08:58:05;;;;;;;;;;;15.00;99.90;;;;;;4902632;29;19927;-60
2022/08/05 09:00:35;;;;;;;;;;;15.00;99.90;;;;;;4909635;29;19931;-58
2022/08/05 09:03:04;;;;;;;;;;;15.00;99.90;;;;;;4907476;29;19927;-56
2022/08/05 09:05:33;;;;;;;;;;;15.00;99.90;;;;;;4914023;29;20303;-56
2022/08/05 09:08:21;;;;;;;;;;;15.00;99.90;;;;;;4910973;29;20303;-61
2022/08/05 09:10:53;;;;;;;;;;;15.00;99.90;;;;;;4912597;29;19986;-60
2022/08/05 09:13:21;;;;;;;;;;;15.10;99.90;;;;;;4906914;29;19927;-61
2022/08/05 09:15:50;;;;;;;;;;;15.10;99.90;;;;;;4904689;29;19931;-62
2022/08/05 09:18:18;;;;;;;;;;;15.10;99.90;;;;;;4899366;29;19934;-58
2022/08/05 09:20:45;;;;;;;;;;;15.10;99.90;;;;;;4909212;29;19927;-59
2022/08/05 09:23:19;;;;;;;;;;;15.10;99.90;;;;;;4904586;29;19935;-61
2022/08/05 09:25:49;;;;;;;;;;;15.10;99.90;;;;;;4924824;29;20008;-63
2022/08/05 09:28:31;;;;;;;;;;;15.10;99.90;;;;;;4904705;29;19934;-61
2022/08/05 09:31:11;;;;;;;;;;;15.20;99.90;;;;;;4907118;29;19927;-62
2022/08/05 09:34:05;;;;;;;;;;;15.30;99.90;;;;;;4899213;29;20382;-60
2022/08/05 09:36:48;;;;;;;;;;;15.50;99.90;;;;;;4898633;29;20302;-63
2022/08/05 09:39:23;;;;;;;;;;;15.50;99.90;;;;;;4904764;29;20372;-63
2022/08/05 09:42:14;;;;;;;;;;;15.70;99.90;;;;;;4896076;29;20310;-61
2022/08/05 09:45:04;;;;;;;;;;;15.80;99.90;;;;;;4910901;29;20400;-58
2022/08/05 09:47:53;;;;;;;;;;;15.80;99.90;;;;;;4911146;29;19938;-62
2022/08/05 09:50:33;;;;;;;;;;;15.90;99.90;;;;;;4911603;29;19927;-62
2022/08/05 09:53:11;;;;;;;;;;;16.00;99.90;;;;;;4913527;29;19927;-63
2022/08/05 09:55:56;;;;;;;;;;;16.30;99.90;;;;;;4900078;29;19932;-61
2022/08/05 09:58:30;;;;;;;;;;;16.40;99.90;;;;;;4906080;29;19934;-62
2022/08/05 10:00:59;;;;;;;;;;;16.60;99.90;;;;;;4913426;29;19934;-60
2022/08/05 10:03:28;;;;;;;;;;;16.80;99.90;;;;;;4913570;29;19928;-63
2022/08/05 10:06:18;;;;;;;;;;;16.90;99.90;;;;;;4911113;29;19934;-62
2022/08/05 10:08:47;;;;;;;;;;;16.80;99.90;;;;;;4910060;29;19931;-62
2022/08/05 10:11:22;;;;;;;;;;;16.80;99.90;;;;;;4908904;29;20405;-63
2022/08/05 10:13:50;;;;;;;;;;;16.80;99.90;;;;;;4910194;29;20201;-63
2022/08/05 10:16:34;;;;;;;;;;;16.80;99.90;;;;;;4910493;29;19931;-63
2022/08/05 10:19:08;;;;;;;;;;;17.00;99.90;;;;;;4911164;29;20307;-62
2022/08/05 10:21:36;;;;;;;;;;;17.10;99.90;;;;;;4913139;29;19935;-63
2022/08/05 10:24:12;;;;;;;;;;;17.10;99.90;;;;;;4908534;29;19937;-62
2022/08/05 10:26:40;;;;;;;;;;;17.00;99.90;;;;;;4894219;29;19934;-62
2022/08/05 10:29:21;;;;;;;;;;;17.00;99.90;;;;;;4911437;29;19927;-60
2022/08/05 10:32:09;;;;;;;;;;;17.20;99.90;;;;;;4911927;29;19927;-61
2022/08/05 10:34:57;;;;;;;;;;;17.40;99.90;;;;;;4900846;29;19928;-60
2022/08/05 10:37:29;;;;;;;;;;;17.60;99.90;;;;;;4896979;29;19934;-59
2022/08/05 10:40:27;;;;;;;;;;;17.70;99.90;;;;;;4904123;29;20327;-57
2022/08/05 10:42:58;;;;;;;;;;;17.60;99.90;;;;;;4900995;29;19927;-59
2022/08/05 10:45:29;;;;;;;;;;;17.50;99.90;;;;;;4912167;29;19934;-62
2022/08/05 10:48:30;;;;;;;;;;;17.30;99.90;;;;;;4908600;29;20817;-63
2022/08/05 10:51:18;;;;;;;;;;;17.30;99.90;;;;;;4902609;29;19927;-63
2022/08/05 10:53:55;;;;;;;;;;;17.50;99.90;;;;;;4909917;29;19927;-62
2022/08/05 10:56:42;;;;;;;;;;;17.70;99.90;;;;;;4912531;29;19928;-63
2022/08/05 10:59:14;;;;;;;;;;;17.90;99.90;;;;;;4906426;29;19927;-62
2022/08/05 11:02:06;;;;;;;;;;;18.20;99.90;;;;;;4898523;29;19951;-61
2022/08/05 11:04:47;;;;;;;;;;;18.60;99.90;;;;;;4908235;29;19927;-62
2022/08/05 11:07:17;;;;;;;;;;;18.80;99.90;;;;;;4895096;29;19931;-58
2022/08/05 11:10:01;;;;;;;;;;;19.00;99.90;;;;;;4910848;29;20395;-62
2022/08/05 11:12:37;;;;;;;;;;;19.00;99.80;;;;;;4896447;29;19927;-59
2022/08/05 11:15:08;;;;;;;;;;;19.10;99.20;;;;;;4912217;29;19946;-59
2022/08/05 11:17:48;;;;;;;;;;;19.10;98.20;;;;;;4912089;29;20358;-58
2022/08/05 11:20:46;;;;;;;;;;;19.00;97.30;;;;;;4911998;29;20363;-57
2022/08/05 11:23:32;;;;;;;;;;;19.10;98.00;;;;;;4908415;29;19927;-63
2022/08/05 11:26:21;;;;;;;;;;;19.10;97.40;;;;;;4893971;29;20395;-61
2022/08/05 11:29:00;;;;;;;;;;;19.10;96.10;;;;;;4908348;29;19931;-63
2022/08/05 11:31:43;;;;;;;;;;;19.20;96.80;;;;;;4926613;29;19926;-59
2022/08/05 11:34:38;;;;;;;;;;;19.30;97.10;;;;;;4918116;29;19927;-58
2022/08/05 11:37:37;;;;;;;;;;;19.50;96.90;;;;;;4913050;29;20387;-61
2022/08/05 11:40:43;;;;;;;;;;;19.80;96.90;;;;;;4915594;29;19950;-63
2022/08/05 11:43:19;;;;;;;;;;;20.10;97.00;;;;;;4915638;29;19934;-63
2022/08/05 11:46:07;;;;;;;;;;;20.10;96.50;;;;;;4896158;29;19928;-64
2022/08/05 11:48:42;;;;;;;;;;;20.10;96.70;;;;;;4910221;29;19938;-61
2022/08/05 11:51:10;;;;;;;;;;;19.90;96.30;;;;;;4910499;29;19931;-64
2022/08/05 11:53:59;;;;;;;;;;;19.80;96.80;;;;;;4907183;29;19938;-64
2022/08/05 11:56:47;;;;;;;;;;;19.90;97.50;;;;;;4897046;29;19927;-61
2022/08/05 11:59:19;;;;;;;;;;;20.10;97.20;;;;;;4913840;29;19953;-63
2022/08/05 12:01:51;;;;;;;;;;;20.40;97.30;;;;;;4915966;29;19927;-59
2022/08/05 12:04:18;;;;;;;;;;;20.50;97.40;;;;;;4915236;29;19927;-64
2022/08/05 12:06:49;;;;;;;;;;;20.80;96.70;;;;;;4915513;29;19927;-64
2022/08/05 12:09:20;;;;;;;;;;;21.00;95.90;;;;;;4914021;29;19928;-63
2022/08/05 12:12:08;;;;;;;;;;;21.30;95.90;;;;;;4914916;29;19927;-64
2022/08/05 12:14:40;;;;;;;;;;;21.70;95.50;;;;;;4909627;29;19942;-58
2022/08/05 12:17:14;;;;;;;;;;;22.00;95.00;;;;;;4915368;29;19931;-61
2022/08/05 12:20:05;;;;;;;;;;;22.30;94.50;;;;;;4909397;29;19927;-62
2022/08/05 12:23:06;;;;;;;;;;;22.70;93.80;;;;;;4901495;29;19927;-62
2022/08/05 12:25:53;;;;;;;;;;;22.90;92.50;;;;;;4906652;29;19962;-62
2022/08/05 12:28:33;;;;;;;;;;;23.00;91.40;;;;;;4908021;29;19941;-61
2022/08/05 12:31:03;;;;;;;;;;;22.90;91.40;;;;;;4903001;29;19928;-63
2022/08/05 12:33:31;;;;;;;;;;;22.50;91.50;;;;;;4908301;29;20382;-62
2022/08/05 12:36:04;;;;;;;;;;;22.10;91.40;;;;;;4921746;29;19931;-62
2022/08/05 12:38:38;;;;;;;;;;;21.50;91.40;;;;;;4911527;29;19931;-64
2022/08/05 12:41:08;;;;;;;;;;;21.00;92.30;;;;;;4913518;29;19927;-62
2022/08/05 12:43:51;;;;;;;;;;;20.50;93.20;;;;;;4907073;29;19931;-60
2022/08/05 12:46:23;;;;;;;;;;;20.20;94.00;;;;;;4894263;29;19927;-62
2022/08/05 12:48:56;;;;;;;;;;;20.10;94.30;;;;;;4915333;29;19938;-58
2022/08/05 12:51:23;;;;;;;;;;;20.00;94.00;;;;;;4904077;29;19936;-58
2022/08/05 12:54:17;;;;;;;;;;;20.30;95.60;;;;;;4915768;29;19927;-63
2022/08/05 12:56:56;;;;;;;;;;;21.00;93.90;;;;;;4903421;29;19927;-59
2022/08/05 12:59:26;;;;;;;;;;;21.40;92.80;;;;;;4908658;29;20391;-62
2022/08/05 13:02:21;;;;;;;;;;;21.40;92.10;;;;;;4901409;29;19942;-63
2022/08/05 13:04:56;;;;;;;;;;;21.30;91.80;;;;;;4907136;29;19935;-63
2022/08/05 13:07:25;;;;;;;;;;;21.10;91.90;;;;;;4897783;29;19927;-61
2022/08/05 13:10:13;;;;;;;;;;;21.00;91.40;;;;;;4914755;29;19927;-62
2022/08/05 13:12:46;;;;;;;;;;;20.80;91.60;;;;;;4912678;29;19927;-63
2022/08/05 13:15:29;;;;;;;;;;;20.60;92.20;;;;;;4896102;29;20326;-63
2022/08/05 13:18:17;;;;;;;;;;;20.70;92.60;;;;;;4901645;29;19927;-58
2022/08/05 13:20:47;;;;;;;;;;;20.70;92.60;;;;;;4909686;29;19935;-61
2022/08/05 13:23:16;;;;;;;;;;;20.90;93.00;;;;;;4896916;29;19927;-61
2022/08/05 13:25:50;;;;;;;;;;;21.00;91.90;;;;;;4910883;29;20051;-61
2022/08/05 13:28:27;;;;;;;;;;;21.10;91.20;;;;;;4904541;29;19927;-62
2022/08/05 13:30:55;;;;;;;;;;;21.70;91.10;;;;;;4913152;29;20305;-63
2022/08/05 13:33:23;;;;;;;;;;;22.20;90.20;;;;;;4903917;29;19938;-63
2022/08/05 13:36:12;;;;;;;;;;;22.30;87.30;;;;;;4912032;29;19935;-62
2022/08/05 13:38:40;;;;;;;;;;;22.20;86.70;;;;;;4911246;29;19927;-64
2022/08/05 13:41:10;;;;;;;;;;;22.00;87.80;;;;;;4895414;29;19934;-62
2022/08/05 13:43:39;;;;;;;;;;;21.90;88.20;;;;;;4899382;29;19934;-63
2022/08/05 13:46:21;;;;;;;;;;;21.70;89.40;;;;;;4911297;29;19934;-62
2022/08/05 13:49:09;;;;;;;;;;;21.50;89.00;;;;;;4905395;29;20510;-61
2022/08/05 13:51:38;;;;;;;;;;;21.20;88.10;;;;;;4913489;29;20272;-63
2022/08/05 13:54:08;;;;;;;;;;;20.90;88.20;;;;;;4909517;29;19949;-64
2022/08/05 13:56:39;;;;;;;;;;;20.70;89.60;;;;;;4913632;29;19927;-63
2022/08/05 13:59:21;;;;;;;;;;;20.70;89.70;;;;;;4910674;29;19927;-61
2022/08/05 14:01:51;;;;;;;;;;;20.70;88.40;;;;;;4901445;29;19927;-62
2022/08/05 14:07:21;;;;;;;;;;;21.10;91.20;;;;;;4896699;29;19927;-61
2022/08/05 14:10:10;;;;;;;;;;;21.80;90.40;;;;;;4910719;29;19931;-63
2022/08/05 14:12:38;;;;;;;;;;;21.90;88.40;;;;;;4912491;29;19936;-60
2022/08/05 14:15:09;;;;;;;;;;;21.90;89.20;;;;;;4908739;29;19927;-64
2022/08/05 14:17:57;;;;;;;;;;;22.20;90.40;;;;;;4906988;29;20615;-64
2022/08/05 14:20:28;;;;;;;;;;;22.40;89.10;;;;;;4916627;29;19928;-62
2022/08/05 14:22:57;;;;;;;;;;;22.90;87.90;;;;;;4894508;29;19927;-64
2022/08/05 14:25:25;;;;;;;;;;;22.80;86.50;;;;;;4912832;29;19935;-63
2022/08/05 14:27:54;;;;;;;;;;;22.60;87.20;;;;;;4909211;29;20079;-62
2022/08/05 14:30:24;;;;;;;;;;;22.70;89.20;;;;;;4913126;29;19927;-63
2022/08/05 14:32:53;;;;;;;;;;;23.00;87.80;;;;;;4900883;29;19934;-63
2022/08/05 14:35:23;;;;;;;;;;;23.00;86.60;;;;;;4897894;29;20445;-62
2022/08/05 14:38:10;;;;;;;;;;;23.00;84.30;;;;;;4908529;29;19927;-62
2022/08/05 14:40:58;;;;;;;;;;;22.80;84.80;;;;;;4904561;29;19927;-63
2022/08/05 14:43:26;;;;;;;;;;;22.70;85.00;;;;;;4898940;29;19941;-60
2022/08/05 14:46:14;;;;;;;;;;;22.80;87.60;;;;;;4899473;29;19927;-57
2022/08/05 14:48:42;;;;;;;;;;;22.90;85.40;;;;;;4914598;29;20307;-60
2022/08/05 14:51:15;;;;;;;;;;;22.90;85.50;;;;;;4913214;29;19927;-60
2022/08/05 14:53:44;;;;;;;;;;;22.90;84.40;;;;;;4912331;29;19927;-61
2022/08/05 14:56:32;;;;;;;;;;;22.60;84.40;;;;;;4909863;29;19942;-63
2022/08/05 14:59:04;;;;;;;;;;;22.20;85.00;;;;;;4902417;29;20005;-62
2022/08/05 15:01:31;;;;;;;;;;;21.80;84.80;;;;;;4906673;29;20127;-60
2022/08/05 15:04:16;;;;;;;;;;;21.30;86.20;;;;;;4907997;29;19927;-60
2022/08/05 15:06:47;;;;;;;;;;;21.20;90.00;;;;;;4911089;29;19934;-61
2022/08/05 15:09:17;;;;;;;;;;;21.30;87.20;;;;;;4908395;29;19934;-60
2022/08/05 15:12:04;;;;;;;;;;;21.50;87.40;;;;;;4912578;29;19931;-61
2022/08/05 15:14:32;;;;;;;;;;;21.80;85.90;;;;;;4911960;29;20301;-56
2022/08/05 15:17:19;;;;;;;;;;;22.20;87.70;;;;;;4912552;29;19927;-56